Latest Weather Forecast - Thursday 16th May 2019 (6am)

Forecast Period:  6:00 am - 16th May, 2019 to 12:00 Noon - 16th May, 2019  
Synopsis: The Atlantic High Pressure System is the dominant feature
Forecast:

Fair to partly cloudy with a few isolated showers

Weather 
Advisory/Warning:
None
Winds: E -ENE at 15 to 35 km/h (9 to 22 mph)
Sea Conditions:  Slight to moderate in open water; with swells 1.0 m to 2.0 m
 Marine Advisory/Warning: None
Upcoming Tides:
High: 3:48 pm      
Low: 8:58 am  

Aviation WX

[Source: ADDS]
METAR
TVSA 201900Z 07005KT 030V100 9999 SCT022 30/25 Q1014 NOSIG =
TVSA 201700Z 2018/2118 07010KT 9999 FEW016CB SCT018 PROB30 TEMPO 2101/2115 TSRA SCT012CB BKN014
TAF
TVSA 201700Z 2018/2118 07010KT 9999 FEW016CB SCT018 PROB30 TEMPO 2101/2115 TSRA SCT012CB BKN014 =
SR / SS: 09:52 / 22:22 UTC (Sunrise Sunset 2019-08-20)